createdAt,value
2022-08-07T00:02:41.057Z,6.53
2022-08-07T00:06:20.524Z,6.22
2022-08-07T00:10:27.021Z,5.67
2022-08-07T00:14:11.458Z,4.90
2022-08-07T00:17:55.005Z,5.38
2022-08-07T00:21:57.480Z,5.97
2022-08-07T00:25:41.471Z,4.97
2022-08-07T00:29:28.729Z,6.18
2022-08-07T00:33:14.282Z,5.80
2022-08-07T00:36:56.973Z,6.33
2022-08-07T00:40:40.798Z,5.57
2022-08-07T00:44:22.854Z,4.90
2022-08-07T00:48:10.981Z,5.80
2022-08-07T00:51:58.399Z,5.47
2022-08-07T00:56:00.425Z,5.10
2022-08-07T00:59:42.805Z,4.65
2022-08-07T01:03:55.484Z,5.50
2022-08-07T01:07:29.545Z,5.35
2022-08-07T01:12:10.140Z,4.53
2022-08-07T01:15:17.652Z,4.47
2022-08-07T01:18:59.833Z,4.75
2022-08-07T01:22:54.091Z,4.05
2022-08-07T01:26:45.440Z,5.00
2022-08-07T01:30:30.927Z,4.75
2022-08-07T01:34:14.317Z,4.85
2022-08-07T01:37:56.902Z,5.15
2022-08-07T01:42:07.322Z,5.07
2022-08-07T01:45:46.587Z,5.10
2022-08-07T01:49:28.695Z,5.75
2022-08-07T01:53:20.638Z,4.57
2022-08-07T01:57:08.410Z,4.75
2022-08-07T02:00:58.017Z,4.40
2022-08-07T02:05:07.524Z,4.07
2022-08-07T02:08:54.160Z,4.30
2022-08-07T02:12:42.375Z,4.20
2022-08-07T02:16:33.678Z,4.38
2022-08-07T02:20:23.536Z,4.53
2022-08-07T02:24:06.766Z,4.85
2022-08-07T02:27:53.078Z,5.57
2022-08-07T02:31:36.897Z,5.27
2022-08-07T02:35:20.498Z,5.35
2022-08-07T02:39:43.047Z,5.13
2022-08-07T02:43:27.822Z,4.60
2022-08-07T02:47:19.535Z,4.93
2022-08-07T02:51:29.259Z,5.22
2022-08-07T02:55:28.645Z,5.20
2022-08-07T02:59:27.400Z,5.00
2022-08-07T03:03:13.477Z,4.93
2022-08-07T03:06:56.780Z,5.00
2022-08-07T03:10:40.959Z,3.77
2022-08-07T03:14:29.305Z,4.75
2022-08-07T03:18:17.635Z,4.38
2022-08-07T03:22:04.535Z,4.97
2022-08-07T03:25:58.307Z,4.28
2022-08-07T03:29:49.311Z,5.40
2022-08-07T03:33:40.098Z,5.13
2022-08-07T03:37:27.645Z,4.88
2022-08-07T03:41:10.991Z,4.60
2022-08-07T03:44:58.057Z,4.40
2022-08-07T03:48:45.444Z,3.83
2022-08-07T03:52:44.747Z,4.30
2022-08-07T03:56:33.338Z,4.18
2022-08-07T04:00:18.299Z,3.87
2022-08-07T04:04:04.869Z,3.63
2022-08-07T04:07:48.030Z,3.75
2022-08-07T04:12:26.679Z,4.10
2022-08-07T04:15:34.754Z,3.72
2022-08-07T04:19:17.490Z,3.63
2022-08-07T04:23:06.415Z,3.58
2022-08-07T04:26:48.706Z,3.30
2022-08-07T04:30:43.515Z,3.53
2022-08-07T04:34:39.514Z,3.10
2022-08-07T04:38:22.417Z,3.70
2022-08-07T04:42:04.868Z,3.00
2022-08-07T04:46:06.809Z,3.50
2022-08-07T04:50:32.315Z,3.25
2022-08-07T04:54:32.632Z,2.53
2022-08-07T05:03:03.041Z,3.00
2022-08-07T05:07:19.687Z,3.13
2022-08-07T05:15:23.160Z,2.83
2022-08-07T05:19:32.548Z,3.30
2022-08-07T05:24:10.806Z,2.75
2022-08-07T05:32:02.160Z,3.33
2022-08-07T05:40:13.850Z,3.42
2022-08-07T05:44:29.889Z,3.05
2022-08-07T05:48:58.354Z,3.43
2022-08-07T05:54:12.422Z,3.28
2022-08-07T05:57:58.878Z,2.83
2022-08-07T06:02:10.202Z,2.83
2022-08-07T06:05:56.646Z,2.70
2022-08-07T06:10:05.598Z,3.10
2022-08-07T06:14:13.592Z,3.10
2022-08-07T06:17:58.842Z,3.10
2022-08-07T06:22:14.256Z,2.20
2022-08-07T06:25:54.389Z,2.50
2022-08-07T06:29:39.196Z,2.70
2022-08-07T06:33:42.865Z,2.50
2022-08-07T06:37:24.894Z,2.50
2022-08-07T06:42:00.770Z,2.50
2022-08-07T06:49:52.186Z,2.10
2022-08-07T06:55:27.528Z,2.22
2022-08-07T06:58:29.490Z,2.20
2022-08-07T07:02:53.780Z,2.53
2022-08-07T07:06:31.595Z,2.20
2022-08-07T07:19:56.308Z,1.70
2022-08-07T07:24:08.908Z,2.33
2022-08-07T07:28:29.839Z,1.58
2022-08-07T07:32:18.567Z,1.60
2022-08-07T07:36:04.693Z,1.60
2022-08-07T07:40:15.217Z,1.73
2022-08-07T07:44:18.070Z,1.60
2022-08-07T07:48:34.796Z,1.50
2022-08-07T07:52:34.987Z,1.60
2022-08-07T07:56:18.326Z,1.20
2022-08-07T08:00:29.382Z,1.75
2022-08-07T08:04:55.045Z,1.27
2022-08-07T08:08:39.448Z,1.42
2022-08-07T08:12:58.928Z,1.77
2022-08-07T08:17:56.230Z,1.27
2022-08-07T08:22:09.759Z,2.27
2022-08-07T08:26:40.086Z,1.55
2022-08-07T08:34:31.910Z,1.40
2022-08-07T08:38:44.545Z,1.80
2022-08-07T08:43:15.956Z,2.17
2022-08-07T09:00:28.774Z,2.10
2022-08-07T09:04:57.367Z,2.30
2022-08-07T09:09:20.642Z,1.85
2022-08-07T09:13:39.815Z,2.28
2022-08-07T09:18:16.918Z,1.97
2022-08-07T09:24:32.613Z,1.45
2022-08-07T09:27:13.418Z,2.80
2022-08-07T09:39:53.707Z,2.65
2022-08-07T09:53:04.717Z,2.88
2022-08-07T09:57:36.541Z,2.85
2022-08-07T10:02:05.745Z,3.00
2022-08-07T10:28:36.932Z,3.30
2022-08-07T10:32:53.286Z,2.20
2022-08-07T10:37:26.438Z,3.28
2022-08-07T10:41:46.243Z,2.50
2022-08-07T10:46:01.887Z,3.73
2022-08-07T10:50:01.513Z,2.58
2022-08-07T10:54:32.073Z,3.03
2022-08-07T10:59:02.185Z,2.78
2022-08-07T11:16:41.112Z,1.60
2022-08-07T11:20:57.073Z,1.80
2022-08-07T11:30:18.736Z,1.50
2022-08-07T11:34:28.103Z,1.30
2022-08-07T11:38:56.462Z,1.58
2022-08-07T11:48:03.327Z,2.07
2022-08-07T11:56:28.787Z,1.63
2022-08-07T12:06:00.283Z,1.63
2022-08-07T12:10:28.157Z,1.17
2022-08-07T12:14:13.362Z,1.50
2022-08-07T12:18:33.225Z,1.42
2022-08-07T12:27:27.888Z,1.63
2022-08-07T12:32:04.025Z,1.63
2022-08-07T12:40:03.821Z,1.30
2022-08-07T12:48:52.910Z,1.35
2022-08-07T12:57:04.582Z,1.20
2022-08-07T13:01:32.421Z,1.27
2022-08-07T13:10:37.772Z,1.30
2022-08-07T13:14:50.931Z,1.63
2022-08-07T13:19:21.952Z,1.40
2022-08-07T13:32:45.028Z,1.25
2022-08-07T13:41:47.536Z,1.15
2022-08-07T13:46:23.921Z,1.20
2022-08-07T13:51:00.268Z,1.13
2022-08-07T13:54:49.177Z,1.02
2022-08-07T14:08:01.446Z,1.00
2022-08-07T14:12:28.194Z,1.10
2022-08-07T14:20:42.516Z,0.80
2022-08-07T14:24:52.817Z,0.85
2022-08-07T14:29:06.066Z,0.80
2022-08-07T14:55:17.671Z,1.20
2022-08-07T15:46:04.485Z,2.70
2022-08-07T15:58:02.225Z,1.20
2022-08-07T16:06:16.913Z,2.80
2022-08-07T16:19:41.824Z,0.73
2022-08-07T16:37:02.574Z,0.90
2022-08-07T17:00:00.893Z,1.00
2022-08-07T17:17:59.500Z,1.55
2022-08-07T17:22:37.483Z,1.52
2022-08-07T17:36:00.389Z,0.80
2022-08-07T17:45:02.223Z,0.87
2022-08-07T17:54:06.297Z,0.80
2022-08-07T18:30:31.156Z,0.90
2022-08-07T18:35:15.814Z,0.75
2022-08-07T18:43:57.332Z,1.17
2022-08-07T18:48:08.897Z,1.10
2022-08-07T19:16:03.272Z,3.13
2022-08-07T19:38:01.877Z,1.00
2022-08-07T19:46:12.168Z,1.10
2022-08-07T19:54:31.743Z,2.25
2022-08-07T19:58:14.205Z,1.42
2022-08-07T20:02:01.468Z,1.20
2022-08-07T20:06:00.895Z,1.20
2022-08-07T20:10:36.577Z,1.30
2022-08-07T20:13:54.637Z,1.80
2022-08-07T20:17:38.625Z,1.60
2022-08-07T20:21:22.619Z,1.45
2022-08-07T20:25:19.946Z,1.33
2022-08-07T20:29:10.107Z,1.60
2022-08-07T20:32:58.697Z,1.30
2022-08-07T20:36:44.064Z,1.23
2022-08-07T20:40:51.576Z,1.95
2022-08-07T20:44:40.748Z,1.20
2022-08-07T20:48:30.841Z,1.40
2022-08-07T20:52:21.175Z,1.48
2022-08-07T20:56:16.103Z,1.10
2022-08-07T21:00:09.220Z,1.45
2022-08-07T21:04:19.452Z,1.70
2022-08-07T21:08:01.135Z,1.30
2022-08-07T21:11:51.131Z,1.60
2022-08-07T21:15:48.217Z,1.80
2022-08-07T21:19:51.562Z,1.65
2022-08-07T21:24:15.327Z,2.00
2022-08-07T21:28:49.267Z,1.90
2022-08-07T21:32:50.139Z,1.83
2022-08-07T21:36:50.413Z,1.70
2022-08-07T21:40:46.080Z,1.83
2022-08-07T21:46:08.237Z,1.65
2022-08-07T21:49:26.924Z,1.77
2022-08-07T21:53:46.491Z,1.70
2022-08-07T21:58:01.729Z,1.55
2022-08-07T22:02:11.360Z,1.60
2022-08-07T22:06:30.681Z,2.05
2022-08-07T22:10:16.454Z,1.85
2022-08-07T22:14:04.976Z,1.70
2022-08-07T22:17:59.887Z,1.80
2022-08-07T22:22:04.546Z,1.70
2022-08-07T22:25:58.863Z,2.10
2022-08-07T22:29:50.359Z,2.53
2022-08-07T22:33:56.958Z,1.80
2022-08-07T22:38:04.976Z,2.45
2022-08-07T22:42:02.999Z,2.08
2022-08-07T22:46:47.051Z,2.17
2022-08-07T22:51:07.782Z,2.17
2022-08-07T22:55:17.098Z,1.85
2022-08-07T22:59:43.560Z,1.60
2022-08-07T23:03:58.548Z,1.77
2022-08-07T23:08:00.645Z,1.38
2022-08-07T23:11:59.389Z,1.50
2022-08-07T23:16:44.748Z,1.50
2022-08-07T23:20:51.762Z,1.40
2022-08-07T23:24:48.031Z,1.50
2022-08-07T23:29:01.978Z,1.70
2022-08-07T23:34:23.579Z,2.10
2022-08-07T23:37:20.166Z,1.65
2022-08-07T23:41:13.675Z,1.40
2022-08-07T23:45:33.437Z,2.03
2022-08-07T23:49:50.690Z,2.05
2022-08-07T23:53:58.826Z,2.00
2022-08-07T23:57:56.412Z,2.05
